createdAt,value
2022-12-20T00:01:51.279Z,5.43
2022-12-20T00:04:18.802Z,7.77
2022-12-20T00:06:46.404Z,8.97
2022-12-20T00:09:15.219Z,9.00
2022-12-20T00:11:44.275Z,8.93
2022-12-20T00:14:12.040Z,13.87
2022-12-20T00:16:39.722Z,16.03
2022-12-20T00:19:08.819Z,15.90
2022-12-20T00:21:36.986Z,15.40
2022-12-20T00:24:05.316Z,14.90
2022-12-20T00:26:35.702Z,17.20
2022-12-20T00:29:03.144Z,16.97
2022-12-20T00:31:31.640Z,16.30
2022-12-20T00:34:00.247Z,16.43
2022-12-20T00:36:30.077Z,16.17
2022-12-20T00:39:00.245Z,16.77
2022-12-20T00:41:29.162Z,17.03
2022-12-20T00:43:58.420Z,17.30
2022-12-20T00:46:26.988Z,17.50
2022-12-20T00:48:55.278Z,16.93
2022-12-20T00:51:24.999Z,17.43
2022-12-20T00:53:53.561Z,16.57
2022-12-20T00:56:21.296Z,16.57
2022-12-20T00:58:49.162Z,16.00
2022-12-20T01:01:21.498Z,17.83
2022-12-20T01:03:49.557Z,16.67
2022-12-20T01:06:17.661Z,17.73
2022-12-20T01:08:45.113Z,15.87
2022-12-20T01:11:14.893Z,16.77
2022-12-20T01:13:44.866Z,16.13
2022-12-20T01:16:15.192Z,16.13
2022-12-20T01:18:44.172Z,15.60
2022-12-20T01:21:14.459Z,16.77
2022-12-20T01:23:42.428Z,17.10
2022-12-20T01:26:13.095Z,16.03
2022-12-20T01:28:42.549Z,16.07
2022-12-20T01:31:12.686Z,16.53
2022-12-20T01:33:40.939Z,15.87
2022-12-20T01:36:14.706Z,16.00
2022-12-20T01:38:42.332Z,14.53
2022-12-20T01:41:15.540Z,15.90
2022-12-20T01:43:49.168Z,16.47
2022-12-20T01:46:17.319Z,15.37
2022-12-20T01:48:49.481Z,15.07
2022-12-20T01:51:19.433Z,16.00
2022-12-20T01:53:47.965Z,15.80
2022-12-20T01:56:15.712Z,14.37
2022-12-20T01:58:43.451Z,14.97
2022-12-20T02:01:11.002Z,15.30
2022-12-20T02:03:39.955Z,15.83
2022-12-20T02:06:20.264Z,14.47
2022-12-20T02:08:49.281Z,14.90
2022-12-20T02:11:33.186Z,14.87
2022-12-20T02:14:11.658Z,15.60
2022-12-20T02:16:47.910Z,15.33
2022-12-20T02:19:42.583Z,15.37
2022-12-20T02:22:23.885Z,13.10
2022-12-20T02:25:22.923Z,14.00
2022-12-20T02:27:58.550Z,14.47
2022-12-20T02:30:33.532Z,15.17
2022-12-20T02:33:04.089Z,13.17
2022-12-20T02:35:35.031Z,15.10
2022-12-20T02:38:05.073Z,13.67
2022-12-20T02:40:38.994Z,14.53
2022-12-20T02:43:35.402Z,15.50
2022-12-20T02:46:04.143Z,14.83
2022-12-20T02:48:35.487Z,15.30
2022-12-20T02:51:06.537Z,14.97
2022-12-20T02:53:35.018Z,14.47
2022-12-20T02:56:10.442Z,15.10
2022-12-20T02:58:43.241Z,14.50
2022-12-20T03:01:18.335Z,13.77
2022-12-20T03:03:46.504Z,15.27
2022-12-20T03:06:14.100Z,15.33
2022-12-20T03:08:41.556Z,14.10
2022-12-20T03:11:08.987Z,15.23
2022-12-20T03:13:36.420Z,15.30
2022-12-20T03:16:04.868Z,14.70
2022-12-20T03:18:33.708Z,14.70
2022-12-20T03:21:01.160Z,14.40
2022-12-20T03:23:28.607Z,13.87
2022-12-20T03:25:56.381Z,14.30
2022-12-20T03:28:23.997Z,14.20
2022-12-20T03:30:51.445Z,13.10
2022-12-20T03:33:18.843Z,13.97
2022-12-20T03:35:48.215Z,13.57
2022-12-20T03:38:15.666Z,13.97
2022-12-20T03:40:43.109Z,15.27
2022-12-20T03:43:10.514Z,15.33
2022-12-20T03:45:37.939Z,13.80
2022-12-20T03:48:05.355Z,13.73
2022-12-20T03:50:32.800Z,13.60
2022-12-20T03:53:01.761Z,14.20
2022-12-20T03:55:29.320Z,14.13
2022-12-20T03:57:56.972Z,13.67
2022-12-20T04:00:24.518Z,13.70
2022-12-20T04:02:52.344Z,13.80
2022-12-20T04:05:21.239Z,13.37
2022-12-20T04:07:48.701Z,14.70
2022-12-20T04:10:17.554Z,13.67
2022-12-20T04:12:45.007Z,13.47
2022-12-20T04:15:12.449Z,13.60
2022-12-20T04:17:40.006Z,13.97
2022-12-20T04:20:19.645Z,13.73
2022-12-20T04:22:47.227Z,14.80
2022-12-20T04:25:15.049Z,13.27
2022-12-20T04:27:43.805Z,13.87
2022-12-20T04:30:12.573Z,14.87
2022-12-20T04:32:40.151Z,13.93
2022-12-20T04:35:08.458Z,14.80
2022-12-20T04:37:35.896Z,13.47
2022-12-20T04:40:03.301Z,15.20
2022-12-20T04:42:30.752Z,14.80
2022-12-20T04:44:59.590Z,14.17
2022-12-20T04:47:27.031Z,13.23
2022-12-20T04:49:54.453Z,14.43
2022-12-20T04:52:43.609Z,15.10
2022-12-20T04:55:15.018Z,14.67
2022-12-20T04:57:42.476Z,12.97
2022-12-20T05:00:12.625Z,13.33
2022-12-20T05:02:40.120Z,13.03
2022-12-20T05:05:08.472Z,13.67
2022-12-20T05:07:35.907Z,13.20
2022-12-20T05:10:03.356Z,14.97
2022-12-20T05:12:30.784Z,14.17
2022-12-20T05:14:58.247Z,11.87
2022-12-20T05:17:26.989Z,13.93
2022-12-20T05:19:54.420Z,13.57
2022-12-20T05:22:39.340Z,12.70
2022-12-20T05:25:24.672Z,15.57
2022-12-20T05:27:52.091Z,14.47
2022-12-20T05:30:20.156Z,13.57
2022-12-20T05:32:49.174Z,13.77
2022-12-20T05:35:16.679Z,14.50
2022-12-20T05:37:44.217Z,13.77
2022-12-20T05:40:12.374Z,14.10
2022-12-20T05:42:40.221Z,14.57
2022-12-20T05:45:08.222Z,14.57
2022-12-20T05:47:35.633Z,14.73
2022-12-20T05:50:05.045Z,14.10
2022-12-20T05:52:33.164Z,14.20
2022-12-20T05:55:00.626Z,13.73
2022-12-20T05:57:28.607Z,14.57
2022-12-20T05:59:56.123Z,13.90
2022-12-20T06:02:23.808Z,14.57
2022-12-20T06:04:51.342Z,14.47
2022-12-20T06:07:20.464Z,14.63
2022-12-20T06:09:47.875Z,14.40
2022-12-20T06:12:15.381Z,14.77
2022-12-20T06:14:42.887Z,14.93
2022-12-20T06:17:12.012Z,15.30
2022-12-20T06:19:41.478Z,14.40
2022-12-20T06:22:09.544Z,14.77
2022-12-20T06:24:44.291Z,13.90
2022-12-20T06:27:15.549Z,14.03
2022-12-20T06:29:49.486Z,15.07
2022-12-20T06:32:16.888Z,15.07
2022-12-20T06:34:45.230Z,14.93
2022-12-20T06:37:12.848Z,14.90
2022-12-20T06:39:41.674Z,15.10
2022-12-20T06:42:09.244Z,15.07
2022-12-20T06:44:36.747Z,15.20
2022-12-20T06:47:04.868Z,15.60
2022-12-20T06:49:32.358Z,15.87
2022-12-20T06:51:59.793Z,15.90
2022-12-20T06:54:27.280Z,18.50
2022-12-20T06:56:56.095Z,17.80
2022-12-20T06:59:23.584Z,16.60
2022-12-20T07:01:53.526Z,16.70
2022-12-20T07:04:21.356Z,16.47
2022-12-20T07:06:48.857Z,16.23
2022-12-20T07:09:16.409Z,15.03
2022-12-20T07:11:44.280Z,15.53
2022-12-20T07:14:13.197Z,16.87
2022-12-20T07:16:41.622Z,16.73
2022-12-20T07:19:11.907Z,16.43
2022-12-20T07:21:39.482Z,17.73
2022-12-20T07:24:07.951Z,16.53
2022-12-20T07:26:35.804Z,17.77
2022-12-20T07:29:03.536Z,16.30
2022-12-20T07:31:32.345Z,15.97
2022-12-20T07:34:00.014Z,16.43
2022-12-20T07:36:27.612Z,16.17
2022-12-20T07:38:55.136Z,16.77
2022-12-20T07:41:22.799Z,21.80
2022-12-20T07:43:50.285Z,20.87
2022-12-20T07:46:18.800Z,17.80
2022-12-20T07:48:47.627Z,17.17
2022-12-20T07:51:18.753Z,17.70
2022-12-20T07:53:49.736Z,18.60
2022-12-20T07:56:19.425Z,16.93
2022-12-20T07:58:46.963Z,19.23
2022-12-20T08:01:14.910Z,20.80
2022-12-20T08:03:47.146Z,19.10
2022-12-20T08:06:17.000Z,21.00
2022-12-20T08:08:48.843Z,22.77
2022-12-20T08:11:17.493Z,18.27
2022-12-20T08:13:46.736Z,20.73
2022-12-20T08:16:15.018Z,22.17
2022-12-20T08:18:42.498Z,21.27
2022-12-20T08:21:10.736Z,19.73
2022-12-20T08:23:39.473Z,19.00
2022-12-20T08:26:07.057Z,19.53
2022-12-20T08:28:35.401Z,19.70
2022-12-20T08:31:03.236Z,20.07
2022-12-20T08:33:31.028Z,18.53
2022-12-20T08:35:59.525Z,18.50
2022-12-20T08:38:28.817Z,19.67
2022-12-20T08:40:58.022Z,18.80
2022-12-20T08:43:25.458Z,20.00
2022-12-20T08:45:55.257Z,19.03
2022-12-20T08:48:23.534Z,20.00
2022-12-20T08:50:55.603Z,19.07
2022-12-20T08:53:23.600Z,19.80
2022-12-20T08:55:51.046Z,20.07
2022-12-20T08:58:20.264Z,19.90
2022-12-20T09:00:48.191Z,20.80
2022-12-20T09:03:15.761Z,21.37
2022-12-20T09:05:47.549Z,18.43
2022-12-20T09:08:15.878Z,20.63
2022-12-20T09:10:43.571Z,19.67
2022-12-20T09:13:11.806Z,19.50
2022-12-20T09:15:40.856Z,20.20
2022-12-20T09:18:08.307Z,19.67
2022-12-20T09:20:35.766Z,20.47
2022-12-20T09:23:03.692Z,19.07
2022-12-20T09:25:31.223Z,19.77
2022-12-20T09:27:58.781Z,19.23
2022-12-20T09:30:26.299Z,20.63
2022-12-20T09:32:57.035Z,20.03
2022-12-20T09:35:38.140Z,20.37
2022-12-20T09:38:05.995Z,18.77
2022-12-20T09:40:33.663Z,18.33
2022-12-20T09:43:01.323Z,18.57
2022-12-20T09:45:31.263Z,20.10
2022-12-20T09:48:00.175Z,19.30
2022-12-20T09:50:41.043Z,19.10
2022-12-20T09:53:20.958Z,22.37
2022-12-20T09:55:54.847Z,19.17
2022-12-20T09:58:37.942Z,16.30
2022-12-20T10:01:22.970Z,19.87
2022-12-20T10:03:54.894Z,17.27
2022-12-20T10:06:34.826Z,16.40
2022-12-20T10:09:05.146Z,17.40
2022-12-20T10:11:51.177Z,17.70
2022-12-20T10:14:34.687Z,16.63
2022-12-20T10:17:06.213Z,17.57
2022-12-20T10:19:57.645Z,17.77
2022-12-20T10:22:30.061Z,17.30
2022-12-20T10:25:02.883Z,16.87
2022-12-20T10:27:30.489Z,17.63
2022-12-20T10:29:58.245Z,16.07
2022-12-20T10:32:26.951Z,15.70
2022-12-20T10:35:00.277Z,15.43
2022-12-20T10:37:27.839Z,14.67
2022-12-20T10:39:55.426Z,14.50
2022-12-20T10:42:27.410Z,15.20
2022-12-20T10:44:56.977Z,15.17
2022-12-20T10:47:34.875Z,15.83
2022-12-20T10:50:14.546Z,16.60
2022-12-20T10:52:42.320Z,15.77
2022-12-20T10:55:36.019Z,14.93
2022-12-20T10:58:12.923Z,16.87
2022-12-20T11:00:41.454Z,15.80
2022-12-20T11:03:15.746Z,14.37
2022-12-20T11:05:56.380Z,16.17
2022-12-20T11:08:51.229Z,15.87
2022-12-20T11:11:17.225Z,17.17
2022-12-20T11:13:46.115Z,16.07
2022-12-20T11:16:25.389Z,16.77
2022-12-20T11:19:03.126Z,15.93
2022-12-20T11:21:43.132Z,17.00
2022-12-20T11:24:15.381Z,13.23
2022-12-20T11:26:58.737Z,17.13
2022-12-20T11:29:50.144Z,14.43
2022-12-20T11:32:30.055Z,12.40
2022-12-20T11:35:09.356Z,12.60
2022-12-20T11:37:47.320Z,12.73
2022-12-20T11:40:28.084Z,12.33
2022-12-20T11:43:07.765Z,13.07
2022-12-20T11:45:44.079Z,13.43
2022-12-20T11:48:28.045Z,14.03
2022-12-20T11:51:04.209Z,14.60
2022-12-20T11:53:40.430Z,14.23
2022-12-20T11:56:17.026Z,13.17
2022-12-20T11:58:52.849Z,15.10
2022-12-20T12:01:24.276Z,15.87
2022-12-20T12:04:06.613Z,14.53
2022-12-20T12:06:36.995Z,13.10
2022-12-20T12:09:22.134Z,14.07
2022-12-20T12:12:06.843Z,13.70
2022-12-20T12:14:55.659Z,15.27
2022-12-20T12:17:33.676Z,13.20
2022-12-20T12:20:16.660Z,12.77
2022-12-20T12:22:46.848Z,13.60
2022-12-20T12:25:19.331Z,18.07
2022-12-20T12:27:46.929Z,14.83
2022-12-20T12:30:16.072Z,15.10
2022-12-20T12:32:50.808Z,14.03
2022-12-20T12:35:46.800Z,13.43
2022-12-20T12:38:34.009Z,14.40
2022-12-20T12:41:41.848Z,15.90
2022-12-20T12:44:33.570Z,13.00
2022-12-20T12:47:06.285Z,13.57
2022-12-20T12:49:35.000Z,13.17
2022-12-20T12:52:05.868Z,13.80
2022-12-20T12:54:38.525Z,14.50
2022-12-20T12:57:13.577Z,14.20
2022-12-20T12:59:43.869Z,13.50
2022-12-20T13:02:37.118Z,13.20
2022-12-20T13:05:34.417Z,13.47
2022-12-20T13:08:01.885Z,13.83
2022-12-20T13:11:09.056Z,14.93
2022-12-20T13:13:37.829Z,13.07
2022-12-20T13:16:11.332Z,14.20
2022-12-20T13:18:38.904Z,13.63
2022-12-20T13:21:37.233Z,13.93
2022-12-20T13:24:40.331Z,12.63
2022-12-20T13:27:22.636Z,13.93
2022-12-20T13:30:02.448Z,14.20
2022-12-20T13:32:56.759Z,13.00
2022-12-20T13:35:33.623Z,14.50
2022-12-20T13:38:04.717Z,14.43
2022-12-20T13:40:37.561Z,13.87
2022-12-20T13:43:13.098Z,13.23
2022-12-20T13:45:46.666Z,14.03
2022-12-20T13:48:18.558Z,13.53
2022-12-20T13:50:52.297Z,12.93
2022-12-20T13:53:21.426Z,12.43
2022-12-20T13:55:50.160Z,13.70
2022-12-20T13:58:20.593Z,14.27
2022-12-20T14:00:50.663Z,14.07
2022-12-20T14:03:25.207Z,13.47
2022-12-20T14:05:58.326Z,13.43
2022-12-20T14:08:30.004Z,13.67
2022-12-20T14:11:08.629Z,13.20
2022-12-20T14:13:36.034Z,13.07
2022-12-20T14:16:15.554Z,13.33
2022-12-20T14:18:44.363Z,13.53
2022-12-20T14:21:12.002Z,13.53
2022-12-20T14:23:41.878Z,14.00
2022-12-20T14:26:13.877Z,13.50
2022-12-20T14:28:44.319Z,15.87
2022-12-20T14:31:26.398Z,15.90
2022-12-20T14:34:04.022Z,13.43
2022-12-20T14:36:31.781Z,14.47
2022-12-20T14:38:59.276Z,14.07
2022-12-20T14:41:31.952Z,14.07
2022-12-20T14:44:03.966Z,13.60
2022-12-20T14:46:33.007Z,14.27
2022-12-20T14:49:18.199Z,14.50
2022-12-20T14:51:46.640Z,13.97
2022-12-20T14:54:47.734Z,14.20
2022-12-20T14:57:12.667Z,15.67
2022-12-20T14:59:40.280Z,15.37
2022-12-20T15:02:35.538Z,13.63
2022-12-20T15:05:26.024Z,15.10
2022-12-20T15:07:53.489Z,14.90
2022-12-20T15:10:20.877Z,14.67
2022-12-20T15:12:48.451Z,15.93
2022-12-20T15:15:31.464Z,14.77
2022-12-20T15:18:00.240Z,16.17
2022-12-20T15:20:27.752Z,15.97
2022-12-20T15:22:55.260Z,15.73
2022-12-20T15:25:22.782Z,17.13
2022-12-20T15:27:50.308Z,15.37
2022-12-20T15:30:18.666Z,14.83
2022-12-20T15:32:55.241Z,16.70
2022-12-20T15:35:25.689Z,15.73
2022-12-20T15:37:53.112Z,16.87
2022-12-20T15:40:20.744Z,16.87
2022-12-20T15:42:48.293Z,16.40
2022-12-20T15:45:16.264Z,18.57
2022-12-20T15:47:43.736Z,19.57
2022-12-20T15:50:13.685Z,18.40
2022-12-20T15:52:44.271Z,18.63
2022-12-20T15:55:12.374Z,16.73
2022-12-20T15:57:39.785Z,17.27
2022-12-20T16:00:10.908Z,17.67
2022-12-20T16:02:38.659Z,21.20
2022-12-20T16:05:06.810Z,18.40
2022-12-20T16:07:34.268Z,18.80
2022-12-20T16:10:03.198Z,18.80
2022-12-20T16:12:34.151Z,17.40
2022-12-20T16:15:01.707Z,18.97
2022-12-20T16:17:29.181Z,19.37
2022-12-20T16:19:56.670Z,19.27
2022-12-20T16:22:26.105Z,19.03
2022-12-20T16:24:53.563Z,18.13
2022-12-20T16:27:22.691Z,18.17
2022-12-20T16:29:50.162Z,18.43
2022-12-20T16:32:19.591Z,19.20
2022-12-20T16:34:47.209Z,19.03
2022-12-20T16:37:14.927Z,18.77
2022-12-20T16:39:43.179Z,18.70
2022-12-20T16:42:14.587Z,18.47
2022-12-20T16:44:45.266Z,17.40
2022-12-20T16:47:14.159Z,18.10
2022-12-20T16:49:45.780Z,18.67
2022-12-20T16:52:19.442Z,18.23
2022-12-20T16:54:46.967Z,18.17
2022-12-20T16:57:14.531Z,18.83
2022-12-20T16:59:43.363Z,21.37
2022-12-20T17:02:24.449Z,19.67
2022-12-20T17:04:52.207Z,19.13
2022-12-20T17:07:19.639Z,19.33
2022-12-20T17:12:32.177Z,17.83
2022-12-20T17:15:00.898Z,26.07
2022-12-20T17:17:28.306Z,18.43
2022-12-20T17:19:55.744Z,18.57
2022-12-20T17:25:19.272Z,17.60
2022-12-20T17:27:46.728Z,18.47
2022-12-20T17:30:15.999Z,18.77
2022-12-20T17:32:43.482Z,19.20
2022-12-20T17:35:20.659Z,18.43
2022-12-20T17:37:48.264Z,19.70
2022-12-20T17:40:16.825Z,18.37
2022-12-20T17:42:44.411Z,18.43
2022-12-20T17:45:26.400Z,17.33
2022-12-20T17:47:54.929Z,17.43
2022-12-20T17:50:22.915Z,18.73
2022-12-20T17:52:50.373Z,17.60
2022-12-20T17:55:20.740Z,18.43
2022-12-20T17:57:48.412Z,18.13
2022-12-20T18:00:25.333Z,17.93
2022-12-20T18:02:53.858Z,18.37
2022-12-20T18:05:22.584Z,19.37
2022-12-20T18:07:51.611Z,18.73
2022-12-20T18:10:19.136Z,19.07
2022-12-20T18:12:47.048Z,20.33
2022-12-20T18:15:15.288Z,18.93
2022-12-20T18:17:44.466Z,18.73
2022-12-20T18:20:12.939Z,16.90
2022-12-20T18:22:40.635Z,18.73
2022-12-20T18:25:08.702Z,18.90
2022-12-20T18:27:40.521Z,17.37
2022-12-20T18:30:13.475Z,19.27
2022-12-20T18:32:41.408Z,19.07
2022-12-20T18:35:11.100Z,19.03
2022-12-20T18:37:38.532Z,19.00
2022-12-20T18:40:07.438Z,19.70
2022-12-20T18:42:34.935Z,18.70
2022-12-20T18:45:02.401Z,17.93
2022-12-20T18:47:32.244Z,19.00
2022-12-20T18:49:59.866Z,20.20
2022-12-20T18:52:28.636Z,18.43
2022-12-20T18:54:56.646Z,18.33
2022-12-20T18:57:24.106Z,16.70
2022-12-20T18:59:51.630Z,17.43
2022-12-20T19:02:19.294Z,17.30
2022-12-20T19:04:46.863Z,16.70
2022-12-20T19:07:15.521Z,17.13
2022-12-20T19:09:44.310Z,18.90
2022-12-20T19:12:11.821Z,18.23
2022-12-20T19:14:39.227Z,17.40
2022-12-20T19:17:06.849Z,18.13
2022-12-20T19:19:34.327Z,17.80
2022-12-20T19:22:02.034Z,18.00
2022-12-20T19:24:29.481Z,18.40
2022-12-20T19:26:58.613Z,16.57
2022-12-20T19:29:26.058Z,17.03
2022-12-20T19:31:53.436Z,17.30
2022-12-20T19:34:20.828Z,18.73
2022-12-20T19:36:48.483Z,18.77
2022-12-20T19:39:18.009Z,18.40
2022-12-20T19:41:59.831Z,18.37
2022-12-20T19:44:34.387Z,20.73
2022-12-20T19:47:04.849Z,19.33
2022-12-20T19:49:32.309Z,17.20
2022-12-20T19:51:59.807Z,18.67
2022-12-20T19:54:27.437Z,18.63
2022-12-20T19:56:54.847Z,18.50
2022-12-20T19:59:22.325Z,17.93
2022-12-20T20:01:51.415Z,19.60
2022-12-20T20:04:18.901Z,18.07
2022-12-20T20:06:46.303Z,17.40
2022-12-20T20:09:13.713Z,17.77
2022-12-20T20:11:41.166Z,18.20
2022-12-20T20:14:10.151Z,18.13
2022-12-20T20:16:37.840Z,19.33
2022-12-20T20:19:06.887Z,17.87
2022-12-20T20:21:36.327Z,18.77
2022-12-20T20:24:03.833Z,18.47
2022-12-20T20:26:31.866Z,20.30
2022-12-20T20:29:01.387Z,19.43
2022-12-20T20:31:29.439Z,18.27
2022-12-20T20:33:58.203Z,17.20
2022-12-20T20:36:27.031Z,17.80
2022-12-20T20:38:54.459Z,18.83
2022-12-20T20:41:22.613Z,18.50
2022-12-20T20:43:50.252Z,18.40
2022-12-20T20:46:18.780Z,18.27
2022-12-20T20:48:46.604Z,18.33
2022-12-20T20:51:14.635Z,18.27
2022-12-20T20:53:43.615Z,18.60
2022-12-20T20:56:11.680Z,17.37
2022-12-20T20:58:39.443Z,18.13
2022-12-20T21:01:09.307Z,17.30
2022-12-20T21:03:38.047Z,18.50
2022-12-20T21:06:39.174Z,18.30
2022-12-20T21:08:56.155Z,16.20
2022-12-20T21:11:24.419Z,18.07
2022-12-20T21:13:53.976Z,17.90
2022-12-20T21:16:22.478Z,19.27
2022-12-20T21:18:51.692Z,19.27
2022-12-20T21:21:20.218Z,18.53
2022-12-20T21:23:48.307Z,18.87
2022-12-20T21:26:18.452Z,19.00
2022-12-20T21:28:46.000Z,19.50
2022-12-20T21:31:14.991Z,18.33
2022-12-20T21:33:42.882Z,17.53
2022-12-20T21:36:14.390Z,18.67
2022-12-20T21:38:42.486Z,17.70
2022-12-20T21:41:13.246Z,18.00
2022-12-20T21:43:42.099Z,17.47
2022-12-20T21:46:11.279Z,17.90
2022-12-20T21:48:39.309Z,18.93
2022-12-20T21:51:10.007Z,18.37
2022-12-20T21:53:42.198Z,16.53
2022-12-20T21:56:09.767Z,17.60
2022-12-20T21:58:37.464Z,18.70
2022-12-20T22:01:07.983Z,16.97
2022-12-20T22:03:36.752Z,18.77
2022-12-20T22:06:05.169Z,20.17
2022-12-20T22:08:33.259Z,19.57
2022-12-20T22:11:01.992Z,18.97
2022-12-20T22:13:33.235Z,18.37
2022-12-20T22:16:08.234Z,18.83
2022-12-20T22:18:36.603Z,18.83
2022-12-20T22:21:04.600Z,17.87
2022-12-20T22:23:32.458Z,17.37
2022-12-20T22:26:02.575Z,17.77
2022-12-20T22:28:30.382Z,18.40
2022-12-20T22:30:57.846Z,18.43
2022-12-20T22:33:26.551Z,17.03
2022-12-20T22:35:53.986Z,18.07
2022-12-20T22:38:21.395Z,17.67
2022-12-20T22:40:48.772Z,16.93
2022-12-20T22:43:16.192Z,20.37
2022-12-20T22:45:43.690Z,19.37
2022-12-20T22:48:11.185Z,19.57
2022-12-20T22:50:39.932Z,18.83
2022-12-20T22:53:07.415Z,18.73
2022-12-20T22:55:35.541Z,18.97
2022-12-20T22:58:03.186Z,17.13
2022-12-20T23:00:30.713Z,19.43
2022-12-20T23:02:58.300Z,16.63
2022-12-20T23:05:25.975Z,18.00
2022-12-20T23:07:54.833Z,17.97
2022-12-20T23:10:39.717Z,18.23
2022-12-20T23:13:24.922Z,18.07
2022-12-20T23:15:52.542Z,17.63
2022-12-20T23:18:20.038Z,17.73
2022-12-20T23:21:07.469Z,17.33
2022-12-20T23:23:36.227Z,16.73
2022-12-20T23:26:10.146Z,19.07
2022-12-20T23:28:37.769Z,17.20
2022-12-20T23:31:05.946Z,18.07
2022-12-20T23:33:33.602Z,18.63
2022-12-20T23:36:02.867Z,17.57
2022-12-20T23:38:32.300Z,18.87
2022-12-20T23:41:01.323Z,18.37
2022-12-20T23:43:30.580Z,19.73
2022-12-20T23:46:03.502Z,18.90
2022-12-20T23:48:31.026Z,19.60
2022-12-20T23:50:59.329Z,19.30
2022-12-20T23:53:27.321Z,19.60
2022-12-20T23:56:05.210Z,19.73
2022-12-20T23:58:32.788Z,20.90
